createdAt,value
2022-09-29T00:01:13.487Z,1.83
2022-09-29T00:03:40.560Z,3.77
2022-09-29T00:06:15.441Z,1.80
2022-09-29T00:08:43.432Z,6.67
2022-09-29T00:11:14.534Z,2.87
2022-09-29T00:13:42.956Z,1.50
2022-09-29T00:16:10.435Z,6.70
2022-09-29T00:18:37.637Z,2.70
2022-09-29T00:21:14.036Z,3.17
2022-09-29T00:23:41.219Z,2.33
2022-09-29T00:26:19.383Z,1.87
2022-09-29T00:28:52.570Z,1.90
2022-09-29T00:31:20.902Z,2.63
2022-09-29T00:33:48.020Z,2.40
2022-09-29T00:36:19.241Z,4.00
2022-09-29T00:38:47.930Z,5.20
2022-09-29T00:41:20.077Z,2.27
2022-09-29T00:44:27.140Z,2.50
2022-09-29T00:47:02.384Z,1.90
2022-09-29T00:49:53.975Z,2.17
2022-09-29T00:52:29.390Z,2.17
2022-09-29T00:55:25.652Z,3.33
2022-09-29T00:58:10.112Z,2.70
2022-09-29T01:00:37.729Z,2.50
2022-09-29T01:03:20.128Z,2.13
2022-09-29T01:06:10.388Z,3.90
2022-09-29T01:09:02.276Z,2.27
2022-09-29T01:11:31.329Z,1.93
2022-09-29T01:14:03.739Z,2.40
2022-09-29T01:16:33.915Z,2.00
2022-09-29T01:19:06.860Z,1.80
2022-09-29T01:22:08.182Z,2.83
2022-09-29T01:25:05.466Z,3.53
2022-09-29T01:27:51.884Z,3.10
2022-09-29T01:30:38.939Z,3.20
2022-09-29T01:33:36.440Z,3.00
2022-09-29T01:36:22.790Z,2.67
2022-09-29T01:39:17.211Z,3.93
2022-09-29T01:42:02.279Z,2.37
2022-09-29T01:44:36.524Z,3.90
2022-09-29T01:47:22.949Z,4.40
2022-09-29T01:50:23.910Z,3.20
2022-09-29T01:52:59.274Z,2.53
2022-09-29T01:55:33.506Z,2.67
2022-09-29T01:58:09.578Z,2.50
2022-09-29T02:00:46.296Z,2.80
2022-09-29T02:03:25.904Z,2.30
2022-09-29T02:06:04.769Z,3.97
2022-09-29T02:08:49.572Z,3.63
2022-09-29T02:11:17.830Z,5.63
2022-09-29T02:13:57.720Z,2.00
2022-09-29T02:16:31.095Z,3.00
2022-09-29T02:19:20.293Z,2.10
2022-09-29T02:21:47.417Z,2.47
2022-09-29T02:24:15.052Z,4.03
2022-09-29T02:26:43.418Z,1.90
2022-09-29T02:29:10.895Z,2.00
2022-09-29T02:31:39.418Z,4.10
2022-09-29T02:34:10.861Z,2.70
2022-09-29T02:37:09.736Z,1.60
2022-09-29T02:40:07.512Z,2.90
2022-09-29T02:42:56.355Z,1.90
2022-09-29T02:45:47.229Z,1.80
2022-09-29T02:48:46.594Z,4.50
2022-09-29T02:51:37.156Z,1.60
2022-09-29T02:54:03.980Z,2.13
2022-09-29T02:56:49.661Z,2.97
2022-09-29T02:59:27.878Z,2.10
2022-09-29T03:01:57.650Z,1.80
2022-09-29T03:04:28.726Z,1.83
2022-09-29T03:06:55.659Z,3.53
2022-09-29T03:09:23.413Z,3.90
2022-09-29T03:11:50.457Z,4.40
2022-09-29T03:14:17.512Z,2.77
2022-09-29T03:16:44.580Z,2.90
2022-09-29T03:19:11.964Z,2.90
2022-09-29T03:21:38.891Z,2.30
2022-09-29T03:24:06.549Z,3.57
2022-09-29T03:26:33.647Z,6.17
2022-09-29T03:29:01.094Z,2.00
2022-09-29T03:31:28.087Z,4.20
2022-09-29T03:33:55.084Z,3.30
2022-09-29T03:36:22.104Z,4.00
2022-09-29T03:38:49.073Z,2.60
2022-09-29T03:41:16.200Z,2.40
2022-09-29T03:43:43.368Z,1.90
2022-09-29T03:46:10.583Z,3.50
2022-09-29T03:48:37.616Z,2.10
2022-09-29T03:51:06.044Z,3.40
2022-09-29T03:53:35.643Z,2.93
2022-09-29T03:56:03.600Z,2.03
2022-09-29T03:58:30.539Z,4.60
2022-09-29T04:00:58.001Z,2.10
2022-09-29T04:03:25.781Z,4.47
2022-09-29T04:05:52.935Z,3.53
2022-09-29T04:08:20.017Z,3.50
2022-09-29T04:10:48.219Z,3.40
2022-09-29T04:13:19.774Z,3.23
2022-09-29T04:15:48.572Z,1.70
2022-09-29T04:18:15.812Z,4.23
2022-09-29T04:20:42.730Z,3.37
2022-09-29T04:23:10.018Z,4.87
2022-09-29T04:25:36.926Z,2.50
2022-09-29T04:28:04.317Z,3.20
2022-09-29T04:30:31.255Z,2.90
2022-09-29T04:32:58.601Z,3.00
2022-09-29T04:35:25.610Z,3.80
2022-09-29T04:37:57.463Z,3.53
2022-09-29T04:40:25.645Z,5.73
2022-09-29T04:42:53.041Z,3.23
2022-09-29T04:45:20.671Z,2.43
2022-09-29T04:47:47.767Z,2.60
2022-09-29T04:50:15.015Z,3.50
2022-09-29T04:52:43.660Z,3.23
2022-09-29T04:55:11.829Z,6.30
2022-09-29T04:57:41.229Z,5.10
2022-09-29T05:00:09.741Z,2.93
2022-09-29T05:02:37.029Z,4.70
2022-09-29T05:05:06.583Z,3.83
2022-09-29T05:07:40.221Z,6.50
2022-09-29T05:10:09.273Z,3.93
2022-09-29T05:12:36.369Z,5.00
2022-09-29T05:15:04.852Z,4.73
2022-09-29T05:17:32.631Z,5.63
2022-09-29T05:20:00.206Z,3.33
2022-09-29T05:22:27.274Z,5.53
2022-09-29T05:24:54.436Z,3.97
2022-09-29T05:27:22.368Z,4.77
2022-09-29T05:29:49.487Z,5.13
2022-09-29T05:32:16.941Z,5.43
2022-09-29T05:34:44.085Z,5.77
2022-09-29T05:37:11.839Z,3.53
2022-09-29T05:39:39.877Z,3.90
2022-09-29T05:42:11.972Z,3.57
2022-09-29T05:44:38.992Z,2.80
2022-09-29T05:47:06.189Z,2.63
2022-09-29T05:49:33.554Z,4.77
2022-09-29T05:52:00.747Z,6.43
2022-09-29T05:54:28.049Z,2.83
2022-09-29T05:56:56.124Z,3.80
2022-09-29T05:59:23.290Z,5.30
2022-09-29T06:01:50.758Z,3.30
2022-09-29T06:04:17.928Z,5.27
2022-09-29T06:06:45.226Z,3.60
2022-09-29T06:09:12.367Z,3.00
2022-09-29T06:11:39.452Z,3.17
2022-09-29T06:14:06.604Z,4.30
2022-09-29T06:16:34.367Z,3.43
2022-09-29T06:19:02.720Z,6.20
2022-09-29T06:21:31.592Z,4.60
2022-09-29T06:23:58.984Z,5.70
2022-09-29T06:26:28.263Z,5.80
2022-09-29T06:28:56.760Z,6.40
2022-09-29T06:31:27.098Z,4.40
2022-09-29T06:33:58.722Z,4.47
2022-09-29T06:37:02.202Z,6.10
2022-09-29T06:39:30.039Z,5.40
2022-09-29T06:41:57.128Z,5.10
2022-09-29T06:44:28.491Z,7.07
2022-09-29T06:46:57.059Z,8.83
2022-09-29T06:49:25.108Z,5.17
2022-09-29T06:51:52.422Z,7.60
2022-09-29T06:54:23.367Z,5.17
2022-09-29T06:56:52.226Z,6.73
2022-09-29T06:59:19.617Z,5.90
2022-09-29T07:01:50.570Z,8.37
2022-09-29T07:04:20.227Z,13.43
2022-09-29T07:06:48.690Z,6.80
2022-09-29T07:09:16.378Z,8.70
2022-09-29T07:11:49.539Z,9.07
2022-09-29T07:14:19.200Z,6.13
2022-09-29T07:16:49.562Z,32.87
2022-09-29T07:19:19.542Z,20.53
2022-09-29T07:21:49.377Z,18.33
2022-09-29T07:24:17.605Z,15.20
2022-09-29T07:26:44.777Z,25.20
2022-09-29T07:29:21.462Z,18.03
2022-09-29T07:31:52.003Z,16.63
2022-09-29T07:34:21.526Z,12.57
2022-09-29T07:36:48.761Z,17.30
2022-09-29T07:39:16.007Z,7.57
2022-09-29T07:41:43.159Z,9.07
2022-09-29T07:44:10.234Z,9.57
2022-09-29T07:46:37.371Z,6.93
2022-09-29T07:49:04.316Z,8.87
2022-09-29T07:51:31.614Z,12.43
2022-09-29T07:54:04.572Z,7.63
2022-09-29T07:56:32.923Z,7.00
2022-09-29T07:59:02.251Z,7.63
2022-09-29T08:01:30.002Z,5.90
2022-09-29T08:03:58.313Z,5.97
2022-09-29T08:06:27.140Z,6.93
2022-09-29T08:09:04.309Z,6.80
2022-09-29T08:11:38.498Z,9.87
2022-09-29T08:14:08.027Z,6.03
2022-09-29T08:16:36.950Z,6.43
2022-09-29T08:19:05.948Z,7.73
2022-09-29T08:21:36.578Z,6.67
2022-09-29T08:24:06.100Z,8.60
2022-09-29T08:26:42.657Z,8.93
2022-09-29T08:29:16.343Z,6.27
2022-09-29T08:31:46.234Z,6.40
2022-09-29T08:34:14.022Z,6.23
2022-09-29T08:36:41.735Z,4.20
2022-09-29T08:39:12.112Z,4.00
2022-09-29T08:42:06.274Z,6.27
2022-09-29T08:45:03.703Z,6.57
2022-09-29T08:47:47.480Z,4.33
2022-09-29T08:50:35.900Z,6.23
2022-09-29T08:53:24.637Z,6.20
2022-09-29T08:56:13.498Z,5.47
2022-09-29T08:58:40.647Z,5.77
2022-09-29T09:01:44.967Z,4.23
2022-09-29T09:04:39.461Z,3.33
2022-09-29T09:07:25.681Z,5.90
2022-09-29T09:10:20.185Z,5.50
2022-09-29T09:13:00.704Z,3.30
2022-09-29T09:15:39.669Z,4.17
2022-09-29T09:18:35.085Z,4.83
2022-09-29T09:21:40.137Z,6.50
2022-09-29T09:24:49.571Z,4.10
2022-09-29T09:27:24.862Z,3.37
2022-09-29T09:30:06.757Z,3.00
2022-09-29T09:32:43.456Z,3.90
2022-09-29T09:35:50.920Z,4.73
2022-09-29T09:38:36.146Z,4.77
2022-09-29T09:41:03.473Z,4.50
2022-09-29T09:43:39.543Z,6.53
2022-09-29T09:46:34.831Z,5.93
2022-09-29T09:49:32.497Z,2.40
2022-09-29T09:52:33.957Z,2.33
2022-09-29T09:55:05.973Z,2.47
2022-09-29T09:58:02.681Z,1.97
2022-09-29T10:00:50.259Z,1.80
2022-09-29T10:03:17.668Z,1.50
2022-09-29T10:05:48.368Z,3.70
2022-09-29T10:08:29.620Z,1.40
2022-09-29T10:10:59.735Z,1.80
2022-09-29T10:13:31.807Z,1.90
2022-09-29T10:16:17.913Z,1.90
2022-09-29T10:18:52.435Z,1.50
2022-09-29T10:21:42.594Z,3.40
2022-09-29T10:24:33.433Z,2.20
2022-09-29T10:27:02.683Z,2.37
2022-09-29T10:29:41.270Z,1.37
2022-09-29T10:32:23.018Z,3.40
2022-09-29T10:35:02.738Z,2.20
2022-09-29T10:37:35.668Z,2.20
2022-09-29T10:40:08.902Z,2.07
2022-09-29T10:42:38.696Z,2.60
2022-09-29T10:45:21.686Z,2.33
2022-09-29T10:48:12.130Z,1.57
2022-09-29T10:50:53.855Z,2.30
2022-09-29T10:53:42.767Z,2.00
2022-09-29T10:56:22.405Z,2.23
2022-09-29T10:59:05.707Z,2.10
2022-09-29T11:01:45.398Z,5.90
2022-09-29T11:04:24.933Z,2.20
2022-09-29T11:06:54.293Z,2.87
2022-09-29T11:09:21.432Z,2.33
2022-09-29T11:11:48.350Z,3.40
2022-09-29T11:14:53.061Z,1.90
2022-09-29T11:17:21.447Z,2.40
2022-09-29T11:19:51.703Z,2.83
2022-09-29T11:23:01.919Z,3.00
2022-09-29T11:26:24.569Z,3.80
2022-09-29T11:28:57.584Z,4.97
2022-09-29T11:32:11.432Z,2.60
2022-09-29T11:35:07.992Z,2.37
2022-09-29T11:37:43.117Z,2.60
2022-09-29T11:41:09.630Z,2.47
2022-09-29T11:44:29.098Z,2.47
2022-09-29T11:47:36.489Z,2.43
2022-09-29T11:50:35.898Z,2.70
2022-09-29T11:54:01.654Z,2.20
2022-09-29T11:57:19.238Z,2.70
2022-09-29T11:59:53.034Z,1.80
2022-09-29T12:02:55.639Z,3.20
2022-09-29T12:06:01.436Z,2.10
2022-09-29T12:08:54.028Z,3.47
2022-09-29T12:12:22.543Z,2.53
2022-09-29T12:15:11.357Z,2.30
2022-09-29T12:17:50.413Z,1.93
2022-09-29T12:20:41.725Z,2.27
2022-09-29T12:23:14.385Z,1.77
2022-09-29T12:25:53.430Z,1.97
2022-09-29T12:28:29.320Z,3.50
2022-09-29T12:31:09.059Z,2.40
2022-09-29T12:33:47.849Z,2.83
2022-09-29T12:36:45.580Z,2.83
2022-09-29T12:39:21.180Z,1.70
2022-09-29T12:41:56.293Z,2.67
2022-09-29T12:44:43.370Z,2.07
2022-09-29T12:48:18.554Z,2.40
2022-09-29T12:51:03.721Z,2.17
2022-09-29T12:53:43.088Z,1.90
2022-09-29T12:56:36.911Z,2.07
2022-09-29T12:59:10.080Z,2.27
2022-09-29T13:01:39.330Z,1.70
2022-09-29T13:04:35.507Z,1.97
2022-09-29T13:07:37.398Z,1.47
2022-09-29T13:10:46.713Z,1.70
2022-09-29T13:13:45.654Z,1.80
2022-09-29T13:16:48.342Z,1.77
2022-09-29T13:19:58.613Z,2.60
2022-09-29T13:22:57.102Z,3.20
2022-09-29T13:25:35.275Z,2.07
2022-09-29T13:28:02.814Z,2.30
2022-09-29T13:30:37.012Z,1.30
2022-09-29T13:33:23.787Z,1.40
2022-09-29T13:35:52.215Z,1.90
2022-09-29T13:38:26.888Z,2.30
2022-09-29T13:41:16.683Z,1.67
2022-09-29T13:43:49.822Z,1.60
2022-09-29T13:46:30.127Z,2.17
2022-09-29T13:49:14.319Z,2.40
2022-09-29T13:52:00.471Z,3.93
2022-09-29T13:54:41.594Z,2.40
2022-09-29T13:57:26.148Z,1.40
2022-09-29T13:59:56.337Z,1.70
2022-09-29T14:02:58.525Z,2.33
2022-09-29T14:05:25.295Z,1.60
2022-09-29T14:07:56.113Z,1.77
2022-09-29T14:10:44.847Z,1.80
2022-09-29T14:13:31.544Z,1.60
2022-09-29T14:16:27.824Z,1.17
2022-09-29T14:19:27.576Z,2.03
2022-09-29T14:21:58.961Z,1.50
2022-09-29T14:24:41.281Z,2.40
2022-09-29T14:27:51.816Z,1.70
2022-09-29T14:30:37.156Z,1.50
2022-09-29T14:33:27.077Z,1.60
2022-09-29T14:36:03.816Z,2.83
2022-09-29T14:39:21.574Z,2.77
2022-09-29T14:41:46.848Z,1.97
2022-09-29T14:44:56.289Z,1.57
2022-09-29T14:48:01.668Z,1.93
2022-09-29T14:51:04.876Z,1.80
2022-09-29T14:53:46.456Z,1.23
2022-09-29T14:56:36.151Z,1.67
2022-09-29T15:00:00.327Z,1.50
2022-09-29T15:02:37.016Z,2.23
2022-09-29T15:05:30.010Z,1.20
2022-09-29T15:08:00.376Z,2.20
2022-09-29T15:10:42.986Z,1.33
2022-09-29T15:13:31.651Z,1.90
2022-09-29T15:16:11.545Z,1.40
2022-09-29T15:19:30.008Z,1.50
2022-09-29T15:22:23.418Z,2.40
2022-09-29T15:25:24.480Z,1.60
2022-09-29T15:27:54.644Z,1.80
2022-09-29T15:30:23.749Z,1.70
2022-09-29T15:32:52.267Z,1.87
2022-09-29T15:35:25.736Z,1.40
2022-09-29T15:38:18.420Z,1.30
2022-09-29T15:40:54.754Z,2.70
2022-09-29T15:43:59.321Z,1.53
2022-09-29T15:46:56.224Z,2.90
2022-09-29T15:49:24.834Z,1.70
2022-09-29T15:52:05.038Z,2.37
2022-09-29T15:57:23.920Z,2.50
2022-09-29T15:59:56.152Z,1.40
2022-09-29T16:02:30.684Z,1.50
2022-09-29T16:05:04.933Z,2.53
2022-09-29T16:07:38.311Z,1.40
2022-09-29T16:10:18.087Z,4.13
2022-09-29T16:12:58.746Z,1.43
2022-09-29T16:15:42.887Z,2.13
2022-09-29T16:18:29.336Z,2.03
2022-09-29T16:21:00.089Z,1.80
2022-09-29T16:23:47.733Z,2.80
2022-09-29T16:26:50.555Z,1.93
2022-09-29T16:29:27.729Z,1.80
2022-09-29T16:31:55.798Z,1.73
2022-09-29T16:34:31.075Z,1.40
2022-09-29T16:37:05.888Z,1.77
2022-09-29T16:40:01.714Z,1.87
2022-09-29T16:42:29.645Z,1.40
2022-09-29T16:44:57.061Z,2.00
2022-09-29T16:47:28.126Z,2.37
2022-09-29T16:50:04.295Z,2.07
2022-09-29T16:52:42.918Z,1.70
2022-09-29T16:55:22.511Z,2.73
2022-09-29T16:58:24.632Z,1.70
2022-09-29T17:00:52.681Z,1.30
2022-09-29T17:03:19.821Z,1.60
2022-09-29T17:05:51.354Z,1.30
2022-09-29T17:08:28.887Z,1.47
2022-09-29T17:10:57.252Z,1.43
2022-09-29T17:13:25.803Z,1.97
2022-09-29T17:15:53.886Z,2.43
2022-09-29T17:18:23.126Z,2.30
2022-09-29T17:20:50.050Z,2.40
2022-09-29T17:23:17.088Z,2.47
2022-09-29T17:25:47.824Z,1.80
2022-09-29T17:28:24.528Z,2.33
2022-09-29T17:30:55.378Z,2.03
2022-09-29T17:33:22.485Z,2.43
2022-09-29T17:35:55.299Z,2.87
2022-09-29T17:38:24.149Z,2.30
2022-09-29T17:41:06.176Z,2.90
2022-09-29T17:43:33.777Z,3.03
2022-09-29T17:46:01.561Z,2.77
2022-09-29T17:48:30.820Z,3.00
2022-09-29T17:50:59.507Z,4.20
2022-09-29T17:53:27.215Z,3.40
2022-09-29T17:55:57.881Z,3.77
2022-09-29T17:58:25.535Z,3.93
2022-09-29T18:00:54.753Z,5.57
2022-09-29T18:03:22.307Z,5.20
2022-09-29T18:05:56.219Z,7.40
2022-09-29T18:08:25.834Z,5.03
2022-09-29T18:11:01.045Z,4.60
2022-09-29T18:13:31.674Z,4.37
2022-09-29T18:16:02.782Z,4.27
2022-09-29T18:18:30.253Z,5.80
2022-09-29T18:20:57.444Z,3.67
2022-09-29T18:23:24.721Z,5.20
2022-09-29T18:25:53.010Z,4.33
2022-09-29T18:28:20.476Z,3.90
2022-09-29T18:30:52.403Z,5.20
2022-09-29T18:33:20.748Z,4.27
2022-09-29T18:35:53.654Z,5.73
2022-09-29T18:38:22.547Z,3.60
2022-09-29T18:40:55.925Z,3.70
2022-09-29T18:43:25.884Z,4.20
2022-09-29T18:45:55.270Z,4.20
2022-09-29T18:48:22.326Z,4.70
2022-09-29T18:50:51.981Z,3.30
2022-09-29T18:53:22.594Z,7.40
2022-09-29T18:55:50.592Z,4.40
2022-09-29T18:58:22.047Z,4.13
2022-09-29T19:00:55.293Z,6.63
2022-09-29T19:03:27.740Z,5.20
2022-09-29T19:05:56.267Z,5.80
2022-09-29T19:08:23.985Z,6.50
2022-09-29T19:10:58.534Z,4.80
2022-09-29T19:13:26.007Z,7.57
2022-09-29T19:15:59.493Z,6.20
2022-09-29T19:18:27.215Z,7.50
2022-09-29T19:20:56.913Z,4.80
2022-09-29T19:23:25.729Z,4.97
2022-09-29T19:25:55.252Z,5.10
2022-09-29T19:28:23.936Z,6.10
2022-09-29T19:30:51.099Z,3.13
2022-09-29T19:33:21.596Z,5.40
2022-09-29T19:35:56.754Z,5.00
2022-09-29T19:38:23.897Z,6.70
2022-09-29T19:40:51.788Z,6.00
2022-09-29T19:43:21.449Z,5.50
2022-09-29T19:45:50.102Z,5.40
2022-09-29T19:48:21.379Z,4.33
2022-09-29T19:51:14.367Z,4.27
2022-09-29T19:53:44.506Z,4.27
2022-09-29T19:56:16.657Z,4.17
2022-09-29T19:58:43.783Z,5.43
2022-09-29T20:01:11.752Z,4.47
2022-09-29T20:03:39.101Z,4.97
2022-09-29T20:06:07.000Z,5.23
2022-09-29T20:08:34.652Z,4.20
2022-09-29T20:11:10.208Z,5.40
2022-09-29T20:13:37.964Z,9.40
2022-09-29T20:16:06.062Z,5.50
2022-09-29T20:18:37.364Z,7.37
2022-09-29T20:21:10.661Z,5.93
2022-09-29T20:23:39.232Z,4.57
2022-09-29T20:26:09.876Z,6.23
2022-09-29T20:28:38.171Z,3.47
2022-09-29T20:31:07.421Z,5.00
2022-09-29T20:33:36.349Z,5.20
2022-09-29T20:36:04.996Z,6.37
2022-09-29T20:38:34.594Z,2.93
2022-09-29T20:41:02.625Z,4.50
2022-09-29T20:43:30.092Z,4.77
2022-09-29T20:46:04.196Z,4.97
2022-09-29T20:48:36.690Z,5.03
2022-09-29T20:51:05.816Z,5.13
2022-09-29T20:53:36.814Z,3.30
2022-09-29T20:56:11.610Z,4.10
2022-09-29T20:58:44.037Z,5.07
2022-09-29T21:01:25.012Z,3.50
2022-09-29T21:04:06.720Z,3.30
2022-09-29T21:06:37.604Z,4.43
2022-09-29T21:09:07.161Z,5.00
2022-09-29T21:11:40.230Z,3.23
2022-09-29T21:14:18.484Z,3.93
2022-09-29T21:16:51.585Z,3.80
2022-09-29T21:19:23.930Z,4.30
2022-09-29T21:21:51.180Z,7.23
2022-09-29T21:24:18.357Z,7.17
2022-09-29T21:26:45.493Z,4.20
2022-09-29T21:29:18.557Z,6.40
2022-09-29T21:31:46.182Z,4.30
2022-09-29T21:34:15.260Z,4.73
2022-09-29T21:36:42.468Z,5.03
2022-09-29T21:39:10.658Z,5.40
2022-09-29T21:41:40.979Z,4.33
2022-09-29T21:44:16.097Z,4.73
2022-09-29T21:46:44.018Z,8.40
2022-09-29T21:49:13.343Z,5.30
2022-09-29T21:51:49.513Z,7.93
2022-09-29T21:54:23.158Z,6.10
2022-09-29T21:56:51.508Z,5.37
2022-09-29T21:59:22.656Z,4.50
2022-09-29T22:01:52.318Z,5.40
2022-09-29T22:04:20.213Z,5.00
2022-09-29T22:06:47.225Z,6.23
2022-09-29T22:09:20.892Z,5.67
2022-09-29T22:11:50.312Z,6.53
2022-09-29T22:14:18.391Z,5.70
2022-09-29T22:16:46.092Z,5.00
2022-09-29T22:19:29.203Z,6.93
2022-09-29T22:21:56.550Z,7.37
2022-09-29T22:24:24.494Z,6.83
2022-09-29T22:26:51.958Z,5.73
2022-09-29T22:29:20.199Z,6.50
2022-09-29T22:31:47.490Z,7.73
2022-09-29T22:34:14.847Z,6.83
2022-09-29T22:36:42.320Z,6.60
2022-09-29T22:39:10.795Z,8.00
2022-09-29T22:41:39.984Z,6.43
2022-09-29T22:44:07.872Z,7.00
2022-09-29T22:46:35.582Z,7.53
2022-09-29T22:49:03.353Z,9.10
2022-09-29T22:51:30.593Z,5.97
2022-09-29T22:53:57.541Z,5.57
2022-09-29T22:56:28.918Z,5.30
2022-09-29T22:59:01.679Z,6.50
2022-09-29T23:01:29.626Z,7.20
2022-09-29T23:03:56.780Z,11.90
2022-09-29T23:06:23.948Z,7.63
2022-09-29T23:08:51.260Z,8.90
2022-09-29T23:11:20.406Z,8.53
2022-09-29T23:13:49.012Z,7.40
2022-09-29T23:16:17.327Z,7.17
2022-09-29T23:18:46.148Z,12.17
2022-09-29T23:21:19.707Z,9.63
2022-09-29T23:24:13.279Z,9.43
2022-09-29T23:26:40.474Z,9.90
2022-09-29T23:29:07.805Z,9.47
2022-09-29T23:31:35.519Z,8.50
2022-09-29T23:34:02.633Z,10.13
2022-09-29T23:36:31.900Z,8.90
2022-09-29T23:39:13.620Z,10.93
2022-09-29T23:41:50.206Z,7.80
2022-09-29T23:44:22.808Z,8.40
2022-09-29T23:46:50.495Z,13.47
2022-09-29T23:49:22.455Z,9.77
2022-09-29T23:51:53.207Z,10.20
2022-09-29T23:54:23.766Z,10.43
2022-09-29T23:56:53.146Z,8.90
2022-09-29T23:59:20.951Z,10.40
